Akron Canton Regional Airport Akron US
ICAO: KCAK
IATA: CAK
Category: Medium
Scheduled Services: Yes

Elevation: 1228 ft
TransAlt. 18000 ft.

Airport Communications:
APP/DEP:32.3
APP/DEP:118.6
ATIS:121.05
CLNC DEL:132.05
GND:121.7
ARNG OPS:41.1
CLEVELAND RDO:114.4
TWR:118.3
UNICOM:122.95

KCAK Zoom In..

If you have problems with the map follow the link
https://www.worldairports.se/pages/airport.php?
ICAO=KCAK

Runways:

(A) RW 01 length 7601 ft width 150 ft
ILS 109.50 / hdg 9

(B) RW 05 length 8204 ft width 150 ft
ILS 108.30 / hdg 54

(C) RW 19 length 7601 ft width 150 ft
ILS 109.50 / hdg 189

(D) RW 23 length 8204 ft width 150 ft
ILS 108.30 / hdg 234

Location; KCAK
Day. 26 / Time. 02.51 Zulu
* Altimeter: 29.85
* Temperature: 01° c. 33.8°f.
* Wind from: 240° Speed 08 kn.
Dewpoint: -01° c.
Visibility: 2 Statute Miles.
Clouds: Few 600 ft.
Clouds: Broken 900 ft.
Clouds: Overcast 2600 ft.
Conditions: Light Snow.Conditions: Mist.

KCAK 260251Z 24008KT 2SM -SN BR FEW006 BKN009 OVC026 01/M01 A2985 RMK AO2 SLP118 P0000 60002 T00111011 58003


Wind From 240°
Speed 08 kn.

 
 
jpsmedia worldairports.se 2020   terms of use